sensor_id;sensor_type;location;lat;lon;timestamp;pressure;altitude;pressure_sealevel;temperature;humidity
71716;BME280;59568;52.128;5.434;2023-04-03T00:00:35;103231.59;;;2.14;77.85
71716;BME280;59568;52.128;5.434;2023-04-03T00:03:02;103234.69;;;2.10;77.96
71716;BME280;59568;52.128;5.434;2023-04-03T00:05:29;103243.38;;;2.09;77.93
71716;BME280;59568;52.128;5.434;2023-04-03T00:07:56;103240.97;;;2.07;78.08
71716;BME280;59568;52.128;5.434;2023-04-03T00:10:22;103241.31;;;2.04;78.24
71716;BME280;59568;52.128;5.434;2023-04-03T00:12:49;103244.06;;;2.03;77.95
71716;BME280;59568;52.128;5.434;2023-04-03T00:15:17;103247.63;;;2.02;78.37
71716;BME280;59568;52.128;5.434;2023-04-03T00:17:43;103249.72;;;1.98;78.12
71716;BME280;59568;52.128;5.434;2023-04-03T00:20:10;103248.94;;;1.97;78.30
71716;BME280;59568;52.128;5.434;2023-04-03T00:22:36;103242.31;;;1.95;78.41
71716;BME280;59568;52.128;5.434;2023-04-03T00:25:04;103239.94;;;1.93;78.09
71716;BME280;59568;52.128;5.434;2023-04-03T00:27:30;103246.03;;;1.92;78.42
71716;BME280;59568;52.128;5.434;2023-04-03T00:29:57;103243.81;;;1.89;78.56
71716;BME280;59568;52.128;5.434;2023-04-03T00:32:23;103244.13;;;1.86;78.53
71716;BME280;59568;52.128;5.434;2023-04-03T00:34:50;103242.72;;;1.84;78.32
71716;BME280;59568;52.128;5.434;2023-04-03T00:37:16;103242.06;;;1.82;79.15
71716;BME280;59568;52.128;5.434;2023-04-03T00:39:43;103247.38;;;1.80;79.23
71716;BME280;59568;52.128;5.434;2023-04-03T00:42:09;103251.91;;;1.78;78.95
71716;BME280;59568;52.128;5.434;2023-04-03T00:47:05;103253.22;;;1.74;79.47
71716;BME280;59568;52.128;5.434;2023-04-03T00:49:33;103259.78;;;1.76;79.56
71716;BME280;59568;52.128;5.434;2023-04-03T00:52:01;103265.31;;;1.73;79.55
71716;BME280;59568;52.128;5.434;2023-04-03T00:54:29;103261.25;;;1.71;79.84
71716;BME280;59568;52.128;5.434;2023-04-03T00:56:58;103257.09;;;1.70;79.61
71716;BME280;59568;52.128;5.434;2023-04-03T00:59:28;103262.41;;;1.68;79.51
71716;BME280;59568;52.128;5.434;2023-04-03T01:01:58;103265.13;;;1.67;79.62
71716;BME280;59568;52.128;5.434;2023-04-03T01:04:32;103264.50;;;1.65;79.68
71716;BME280;59568;52.128;5.434;2023-04-03T01:07:24;103264.69;;;1.63;79.98
71716;BME280;59568;52.128;5.434;2023-04-03T01:09:51;103264.22;;;1.59;79.84
71716;BME280;59568;52.128;5.434;2023-04-03T01:12:33;103272.25;;;1.56;80.27
71716;BME280;59568;52.128;5.434;2023-04-03T01:15:07;103270.66;;;1.55;80.54
71716;BME280;59568;52.128;5.434;2023-04-03T01:17:35;103268.09;;;1.55;80.30
71716;BME280;59568;52.128;5.434;2023-04-03T01:25:41;103275.84;;;1.47;80.84
71716;BME280;59568;52.128;5.434;2023-04-03T01:28:11;103280.16;;;1.47;80.85
71716;BME280;59568;52.128;5.434;2023-04-03T01:31:02;103276.94;;;1.45;80.79
71716;BME280;59568;52.128;5.434;2023-04-03T01:33:32;103273.91;;;1.41;80.90
71716;BME280;59568;52.128;5.434;2023-04-03T01:36:00;103267.28;;;1.38;81.20
71716;BME280;59568;52.128;5.434;2023-04-03T01:38:27;103265.06;;;1.35;81.47
71716;BME280;59568;52.128;5.434;2023-04-03T01:40:53;103267.00;;;1.33;81.60
71716;BME280;59568;52.128;5.434;2023-04-03T01:43:20;103264.25;;;1.35;81.68
71716;BME280;59568;52.128;5.434;2023-04-03T01:45:47;103266.84;;;1.35;81.63
71716;BME280;59568;52.128;5.434;2023-04-03T01:48:18;103262.00;;;1.32;81.88
71716;BME280;59568;52.128;5.434;2023-04-03T01:50:44;103269.09;;;1.30;81.76
71716;BME280;59568;52.128;5.434;2023-04-03T01:53:11;103269.25;;;1.28;81.76
71716;BME280;59568;52.128;5.434;2023-04-03T01:55:38;103273.59;;;1.28;82.11
71716;BME280;59568;52.128;5.434;2023-04-03T01:58:04;103269.72;;;1.24;82.04
71716;BME280;59568;52.128;5.434;2023-04-03T02:00:33;103267.31;;;1.22;82.08
71716;BME280;59568;52.128;5.434;2023-04-03T02:03:00;103267.66;;;1.19;82.70
71716;BME280;59568;52.128;5.434;2023-04-03T02:05:27;103269.59;;;1.17;82.86
71716;BME280;59568;52.128;5.434;2023-04-03T02:07:53;103275.53;;;1.17;82.76
71716;BME280;59568;52.128;5.434;2023-04-03T02:10:20;103275.69;;;1.16;82.72
71716;BME280;59568;52.128;5.434;2023-04-03T02:12:47;103279.56;;;1.12;82.80
71716;BME280;59568;52.128;5.434;2023-04-03T02:15:13;103277.78;;;1.12;83.14
71716;BME280;59568;52.128;5.434;2023-04-03T02:17:40;103288.06;;;1.12;82.83
71716;BME280;59568;52.128;5.434;2023-04-03T02:20:07;103293.56;;;1.09;83.10
71716;BME280;59568;52.128;5.434;2023-04-03T02:22:34;103289.38;;;1.08;83.18
71716;BME280;59568;52.128;5.434;2023-04-03T02:25:01;103289.56;;;1.07;83.28
71716;BME280;59568;52.128;5.434;2023-04-03T02:27:27;103289.06;;;1.03;83.34
71716;BME280;59568;52.128;5.434;2023-04-03T02:29:54;103283.91;;;1.03;84.00
71716;BME280;59568;52.128;5.434;2023-04-03T02:32:22;103281.00;;;0.98;83.58
71716;BME280;59568;52.128;5.434;2023-04-03T02:34:48;103282.78;;;0.97;83.80
71716;BME280;59568;52.128;5.434;2023-04-03T02:37:15;103283.91;;;0.95;84.38
71716;BME280;59568;52.128;5.434;2023-04-03T02:39:42;103280.03;;;0.91;84.36
71716;BME280;59568;52.128;5.434;2023-04-03T02:42:08;103287.91;;;0.89;84.63
71716;BME280;59568;52.128;5.434;2023-04-03T02:44:35;103290.97;;;0.85;84.63
71716;BME280;59568;52.128;5.434;2023-04-03T02:47:02;103296.13;;;0.85;84.79
71716;BME280;59568;52.128;5.434;2023-04-03T02:49:29;103296.13;;;0.85;85.02
71716;BME280;59568;52.128;5.434;2023-04-03T02:51:55;103294.50;;;0.84;85.05
71716;BME280;59568;52.128;5.434;2023-04-03T02:54:22;103301.44;;;0.83;85.11
71716;BME280;59568;52.128;5.434;2023-04-03T02:56:50;103302.22;;;0.84;85.30
71716;BME280;59568;52.128;5.434;2023-04-03T02:59:17;103310.28;;;0.81;85.22
71716;BME280;59568;52.128;5.434;2023-04-03T03:01:43;103307.03;;;0.78;85.42
71716;BME280;59568;52.128;5.434;2023-04-03T03:04:10;103312.19;;;0.78;85.60
71716;BME280;59568;52.128;5.434;2023-04-03T03:06:36;103318.59;;;0.74;85.53
71716;BME280;59568;52.128;5.434;2023-04-03T03:09:03;103316.38;;;0.71;85.99
71716;BME280;59568;52.128;5.434;2023-04-03T03:11:30;103315.56;;;0.71;86.07
71716;BME280;59568;52.128;5.434;2023-04-03T03:13:56;103325.03;;;0.70;86.05
71716;BME280;59568;52.128;5.434;2023-04-03T03:16:23;103323.59;;;0.68;86.18
71716;BME280;59568;52.128;5.434;2023-04-03T03:18:51;103328.88;;;0.66;85.93
71716;BME280;59568;52.128;5.434;2023-04-03T03:21:17;103325.19;;;0.61;86.10
71716;BME280;59568;52.128;5.434;2023-04-03T03:23:44;103321.78;;;0.60;86.01
71716;BME280;59568;52.128;5.434;2023-04-03T03:26:11;103325.50;;;0.57;86.32
71716;BME280;59568;52.128;5.434;2023-04-03T03:28:39;103323.91;;;0.56;86.37
71716;BME280;59568;52.128;5.434;2023-04-03T03:31:06;103326.78;;;0.53;86.82
71716;BME280;59568;52.128;5.434;2023-04-03T03:33:33;103325.16;;;0.52;86.47
71716;BME280;59568;52.128;5.434;2023-04-03T03:36:00;103323.06;;;0.48;86.58
71716;BME280;59568;52.128;5.434;2023-04-03T03:38:26;103327.53;;;0.46;86.90
71716;BME280;59568;52.128;5.434;2023-04-03T03:40:53;103323.38;;;0.45;87.06
71716;BME280;59568;52.128;5.434;2023-04-03T03:43:20;103325.31;;;0.43;87.02
71716;BME280;59568;52.128;5.434;2023-04-03T03:45:50;103328.03;;;0.41;87.25
71716;BME280;59568;52.128;5.434;2023-04-03T03:48:18;103323.34;;;0.36;87.30
71716;BME280;59568;52.128;5.434;2023-04-03T03:50:45;103328.50;;;0.36;87.61
71716;BME280;59568;52.128;5.434;2023-04-03T03:53:12;103328.78;;;0.33;87.44
71716;BME280;59568;52.128;5.434;2023-04-03T03:55:38;103330.72;;;0.31;88.04
71716;BME280;59568;52.128;5.434;2023-04-03T03:58:05;103330.72;;;0.31;87.88
71716;BME280;59568;52.128;5.434;2023-04-03T04:00:32;103332.63;;;0.29;88.04
71716;BME280;59568;52.128;5.434;2023-04-03T04:02:58;103331.34;;;0.25;87.70
71716;BME280;59568;52.128;5.434;2023-04-03T04:05:25;103329.72;;;0.24;88.35
71716;BME280;59568;52.128;5.434;2023-04-03T04:07:52;103334.06;;;0.24;88.25
71716;BME280;59568;52.128;5.434;2023-04-03T04:10:18;103333.25;;;0.23;87.91
71716;BME280;59568;52.128;5.434;2023-04-03T04:12:45;103330.03;;;0.21;88.43
71716;BME280;59568;52.128;5.434;2023-04-03T04:15:12;103343.84;;;0.20;88.11
71716;BME280;59568;52.128;5.434;2023-04-03T04:17:38;103341.44;;;0.18;88.65
71716;BME280;59568;52.128;5.434;2023-04-03T04:20:06;103339.66;;;0.19;88.81
71716;BME280;59568;52.128;5.434;2023-04-03T04:22:32;103345.75;;;0.18;88.53
71716;BME280;59568;52.128;5.434;2023-04-03T04:24:59;103338.38;;;0.15;88.73
71716;BME280;59568;52.128;5.434;2023-04-03T04:27:25;103357.31;;;0.14;88.90
71716;BME280;59568;52.128;5.434;2023-04-03T04:29:52;103347.34;;;0.11;88.82
71716;BME280;59568;52.128;5.434;2023-04-03T04:32:18;103351.84;;;0.09;89.00
71716;BME280;59568;52.128;5.434;2023-04-03T04:34:45;103350.19;;;0.08;89.06
71716;BME280;59568;52.128;5.434;2023-04-03T04:37:11;103338.31;;;0.07;89.15
71716;BME280;59568;52.128;5.434;2023-04-03T04:39:38;103345.38;;;0.05;89.40
71716;BME280;59568;52.128;5.434;2023-04-03T04:42:04;103345.38;;;0.05;89.22
71716;BME280;59568;52.128;5.434;2023-04-03T04:44:33;103358.38;;;0.03;89.27
71716;BME280;59568;52.128;5.434;2023-04-03T04:46:59;103364.66;;;0.01;89.50
71716;BME280;59568;52.128;5.434;2023-04-03T04:49:26;103365.59;;;-0.01;89.39
71716;BME280;59568;52.128;5.434;2023-04-03T04:51:53;103363.00;;;-0.01;89.99
71716;BME280;59568;52.128;5.434;2023-04-03T04:54:20;103361.28;;;0.00;90.00
71716;BME280;59568;52.128;5.434;2023-04-03T04:56:46;103361.41;;;-0.02;90.00
71716;BME280;59568;52.128;5.434;2023-04-03T04:59:13;103358.19;;;-0.04;90.11
71716;BME280;59568;52.128;5.434;2023-04-03T05:01:39;103352.53;;;-0.07;90.09
71716;BME280;59568;52.128;5.434;2023-04-03T05:04:06;103363.47;;;-0.05;90.23
71716;BME280;59568;52.128;5.434;2023-04-03T05:06:32;103360.25;;;-0.07;90.18
71716;BME280;59568;52.128;5.434;2023-04-03T05:09:01;103362.03;;;-0.08;90.16
71716;BME280;59568;52.128;5.434;2023-04-03T05:11:28;103364.28;;;-0.05;90.63
71716;BME280;59568;52.128;5.434;2023-04-03T05:13:54;103366.84;;;-0.05;90.42
71716;BME280;59568;52.128;5.434;2023-04-03T05:16:21;103367.50;;;-0.03;90.54
71716;BME280;59568;52.128;5.434;2023-04-03T05:18:48;103367.06;;;0.02;90.25
71716;BME280;59568;52.128;5.434;2023-04-03T05:21:14;103376.22;;;0.05;90.88
71716;BME280;59568;52.128;5.434;2023-04-03T05:23:41;103374.47;;;0.05;90.24
71716;BME280;59568;52.128;5.434;2023-04-03T05:26:07;103376.22;;;0.05;90.56
71716;BME280;59568;52.128;5.434;2023-04-03T05:28:35;103379.47;;;0.07;90.51
71716;BME280;59568;52.128;5.434;2023-04-03T05:31:02;103381.06;;;0.08;90.34
71716;BME280;59568;52.128;5.434;2023-04-03T05:33:28;103379.13;;;0.10;90.70
71716;BME280;59568;52.128;5.434;2023-04-03T05:35:55;103380.75;;;0.11;90.55
71716;BME280;59568;52.128;5.434;2023-04-03T05:38:22;103383.84;;;0.14;90.08
71716;BME280;59568;52.128;5.434;2023-04-03T05:40:48;103382.72;;;0.17;90.33
71716;BME280;59568;52.128;5.434;2023-04-03T05:43:18;103385.81;;;0.21;90.22
71716;BME280;59568;52.128;5.434;2023-04-03T05:45:47;103387.25;;;0.23;89.96
71716;BME280;59568;52.128;5.434;2023-04-03T05:48:13;103388.56;;;0.27;89.89
71716;BME280;59568;52.128;5.434;2023-04-03T05:50:40;103400.81;;;0.33;90.00
71716;BME280;59568;52.128;5.434;2023-04-03T05:53:22;103398.59;;;0.38;90.49
71716;BME280;59568;52.128;5.434;2023-04-03T05:55:51;103403.91;;;0.45;90.33
71716;BME280;59568;52.128;5.434;2023-04-03T05:58:17;103399.28;;;0.49;90.38
71716;BME280;59568;52.128;5.434;2023-04-03T06:00:44;103401.25;;;0.55;89.74
71716;BME280;59568;52.128;5.434;2023-04-03T06:03:11;103403.84;;;0.63;90.24
71716;BME280;59568;52.128;5.434;2023-04-03T06:05:38;103410.94;;;0.69;89.54
71716;BME280;59568;52.128;5.434;2023-04-03T06:08:13;103409.50;;;0.75;89.75
71716;BME280;59568;52.128;5.434;2023-04-03T06:10:40;103411.47;;;0.81;89.63
71716;BME280;59568;52.128;5.434;2023-04-03T06:13:07;103408.75;;;0.91;89.19
71716;BME280;59568;52.128;5.434;2023-04-03T06:15:34;103414.28;;;2.03;93.03
71716;BME280;59568;52.128;5.434;2023-04-03T06:18:00;103411.88;;;3.95;89.30
71716;BME280;59568;52.128;5.434;2023-04-03T06:20:27;103410.00;;;5.07;82.71
71716;BME280;59568;52.128;5.434;2023-04-03T06:22:54;103410.56;;;5.73;79.41
71716;BME280;59568;52.128;5.434;2023-04-03T06:25:20;103408.66;;;6.10;77.02
71716;BME280;59568;52.128;5.434;2023-04-03T06:27:47;103411.06;;;6.60;74.84
71716;BME280;59568;52.128;5.434;2023-04-03T06:30:13;103417.16;;;6.94;72.37
71716;BME280;59568;52.128;5.434;2023-04-03T06:32:40;103415.56;;;7.06;70.86
71716;BME280;59568;52.128;5.434;2023-04-03T06:35:07;103420.81;;;7.33;70.22
71716;BME280;59568;52.128;5.434;2023-04-03T06:37:34;103417.59;;;7.37;68.38
71716;BME280;59568;52.128;5.434;2023-04-03T06:40:01;103429.00;;;7.30;67.08
71716;BME280;59568;52.128;5.434;2023-04-03T06:42:29;103423.41;;;7.53;67.08
71716;BME280;59568;52.128;5.434;2023-04-03T06:44:55;103434.03;;;7.65;66.32
71716;BME280;59568;52.128;5.434;2023-04-03T06:47:23;103430.78;;;7.76;65.82
71716;BME280;59568;52.128;5.434;2023-04-03T06:49:50;103432.41;;;7.24;64.59
71716;BME280;59568;52.128;5.434;2023-04-03T06:52:20;103439.41;;;5.85;66.69
71716;BME280;59568;52.128;5.434;2023-04-03T06:54:47;103446.28;;;5.07;69.42
71716;BME280;59568;52.128;5.434;2023-04-03T06:57:13;103454.34;;;4.46;70.65
71716;BME280;59568;52.128;5.434;2023-04-03T06:59:42;103448.47;;;4.07;72.41
71716;BME280;59568;52.128;5.434;2023-04-03T07:02:09;103446.41;;;4.03;73.55
71716;BME280;59568;52.128;5.434;2023-04-03T07:04:38;103451.59;;;4.03;74.11
71716;BME280;59568;52.128;5.434;2023-04-03T07:07:05;103457.19;;;4.06;74.75
71716;BME280;59568;52.128;5.434;2023-04-03T07:09:34;103458.09;;;3.98;74.65
71716;BME280;59568;52.128;5.434;2023-04-03T07:12:03;103457.72;;;4.02;75.26
71716;BME280;59568;52.128;5.434;2023-04-03T07:14:29;103464.53;;;4.03;75.05
71716;BME280;59568;52.128;5.434;2023-04-03T07:16:56;103457.19;;;4.06;75.23
71716;BME280;59568;52.128;5.434;2023-04-03T07:19:23;103460.41;;;4.08;74.95
71716;BME280;59568;52.128;5.434;2023-04-03T07:21:50;103462.75;;;4.18;75.04
71716;BME280;59568;52.128;5.434;2023-04-03T07:24:17;103468.03;;;4.25;74.98
71716;BME280;59568;52.128;5.434;2023-04-03T07:26:52;103460.94;;;4.18;74.21
71716;BME280;59568;52.128;5.434;2023-04-03T07:29:19;103474.44;;;4.14;74.47
71716;BME280;59568;52.128;5.434;2023-04-03T07:31:49;103473.72;;;4.20;74.92
71716;BME280;59568;52.128;5.434;2023-04-03T07:34:20;103472.84;;;4.28;74.24
71716;BME280;59568;52.128;5.434;2023-04-03T07:36:47;103473.91;;;4.33;74.13
71716;BME280;59568;52.128;5.434;2023-04-03T07:39:16;103473.66;;;4.43;73.82
71716;BME280;59568;52.128;5.434;2023-04-03T07:41:42;103475.53;;;4.49;73.64
71716;BME280;59568;52.128;5.434;2023-04-03T07:44:09;103481.97;;;4.53;72.88
71716;BME280;59568;52.128;5.434;2023-04-03T07:46:41;103479.63;;;4.58;72.64
71716;BME280;59568;52.128;5.434;2023-04-03T07:49:08;103484.19;;;4.71;72.61
71716;BME280;59568;52.128;5.434;2023-04-03T07:51:35;103479.97;;;4.85;72.03
71716;BME280;59568;52.128;5.434;2023-04-03T07:54:02;103482.44;;;4.93;71.95
71716;BME280;59568;52.128;5.434;2023-04-03T07:56:28;103484.19;;;5.08;71.50
71716;BME280;59568;52.128;5.434;2023-04-03T07:58:55;103487.34;;;5.03;71.25
71716;BME280;59568;52.128;5.434;2023-04-03T08:01:22;103492.16;;;5.06;70.41
71716;BME280;59568;52.128;5.434;2023-04-03T08:03:49;103494.56;;;5.08;69.55
71716;BME280;59568;52.128;5.434;2023-04-03T08:06:37;103483.41;;;5.07;69.76
71716;BME280;59568;52.128;5.434;2023-04-03T08:09:23;103478.34;;;5.20;69.33
71716;BME280;59568;52.128;5.434;2023-04-03T08:11:50;103487.69;;;5.36;68.82
71716;BME280;59568;52.128;5.434;2023-04-03T08:14:23;103482.19;;;5.46;67.93
71716;BME280;59568;52.128;5.434;2023-04-03T08:16:50;103484.47;;;5.56;67.50
71716;BME280;59568;52.128;5.434;2023-04-03T08:19:18;103488.03;;;5.55;66.84
71716;BME280;59568;52.128;5.434;2023-04-03T08:21:53;103500.00;;;5.77;66.60
71716;BME280;59568;52.128;5.434;2023-04-03T08:24:20;103492.72;;;5.88;66.40
71716;BME280;59568;52.128;5.434;2023-04-03T08:26:47;103491.88;;;6.02;66.09
71716;BME280;59568;52.128;5.434;2023-04-03T08:29:14;103503.19;;;6.23;65.63
71716;BME280;59568;52.128;5.434;2023-04-03T08:31:40;103507.19;;;6.25;64.02
71716;BME280;59568;52.128;5.434;2023-04-03T08:34:08;103502.00;;;6.25;63.28
71716;BME280;59568;52.128;5.434;2023-04-03T08:36:35;103508.88;;;6.39;63.52
71716;BME280;59568;52.128;5.434;2023-04-03T08:39:01;103510.16;;;6.50;61.75
71716;BME280;59568;52.128;5.434;2023-04-03T08:41:35;103521.78;;;6.61;61.65
71716;BME280;59568;52.128;5.434;2023-04-03T08:47:20;103509.88;;;6.80;60.33
71716;BME280;59568;52.128;5.434;2023-04-03T08:49:55;103523.72;;;6.94;59.60
71716;BME280;59568;52.128;5.434;2023-04-03T08:52:41;103507.31;;;6.87;56.27
71716;BME280;59568;52.128;5.434;2023-04-03T08:58:02;103516.44;;;6.76;54.95
71716;BME280;59568;52.128;5.434;2023-04-03T09:03:33;103519.88;;;6.76;53.26
71716;BME280;59568;52.128;5.434;2023-04-03T09:06:05;103509.47;;;6.76;51.72
71716;BME280;59568;52.128;5.434;2023-04-03T09:11:25;103499.38;;;7.08;51.84
71716;BME280;59568;52.128;5.434;2023-04-03T09:14:16;103510.19;;;7.05;49.82
71716;BME280;59568;52.128;5.434;2023-04-03T09:22:25;103508.41;;;7.12;49.00
71716;BME280;59568;52.128;5.434;2023-04-03T09:25:25;103507.22;;;7.15;46.04
71716;BME280;59568;52.128;5.434;2023-04-03T09:27:53;103509.63;;;7.16;46.97
71716;BME280;59568;52.128;5.434;2023-04-03T09:30:42;103513.63;;;7.26;44.83
71716;BME280;59568;52.128;5.434;2023-04-03T09:33:10;103513.63;;;7.32;45.61
71716;BME280;59568;52.128;5.434;2023-04-03T09:35:40;103504.03;;;7.33;44.70
71716;BME280;59568;52.128;5.434;2023-04-03T09:38:17;103503.22;;;7.32;44.38
71716;BME280;59568;52.128;5.434;2023-04-03T09:41:23;103498.03;;;7.26;44.46
71716;BME280;59568;52.128;5.434;2023-04-03T09:43:54;103492.22;;;7.24;44.36
71716;BME280;59568;52.128;5.434;2023-04-03T09:46:31;103497.25;;;7.45;45.97
71716;BME280;59568;52.128;5.434;2023-04-03T09:49:03;103485.84;;;7.66;43.80
71716;BME280;59568;52.128;5.434;2023-04-03T09:51:35;103484.47;;;7.77;43.53
71716;BME280;59568;52.128;5.434;2023-04-03T09:54:26;103485.06;;;7.79;43.74
71716;BME280;59568;52.128;5.434;2023-04-03T09:57:04;103486.28;;;7.83;44.82
71716;BME280;59568;52.128;5.434;2023-04-03T09:59:58;103467.25;;;7.89;43.13
71716;BME280;59568;52.128;5.434;2023-04-03T10:02:55;103478.00;;;8.06;42.84
71716;BME280;59568;52.128;5.434;2023-04-03T10:11:22;103469.56;;;8.24;40.97
71716;BME280;59568;52.128;5.434;2023-04-03T10:14:00;103453.72;;;8.32;41.36
71716;BME280;59568;52.128;5.434;2023-04-03T10:16:35;103461.13;;;8.42;41.00
71716;BME280;59568;52.128;5.434;2023-04-03T10:19:41;103450.88;;;8.40;42.71
71716;BME280;59568;52.128;5.434;2023-04-03T10:24:52;103448.22;;;8.67;40.44
71716;BME280;59568;52.128;5.434;2023-04-03T10:27:30;103448.97;;;8.74;39.72
71716;BME280;59568;52.128;5.434;2023-04-03T10:32:50;103443.75;;;8.74;39.35
71716;BME280;59568;52.128;5.434;2023-04-03T10:38:30;103419.16;;;8.64;40.95
71716;BME280;59568;52.128;5.434;2023-04-03T10:46:25;103413.97;;;8.95;39.91
71716;BME280;59568;52.128;5.434;2023-04-03T10:49:41;103413.38;;;9.18;39.88
71716;BME280;59568;52.128;5.434;2023-04-03T10:52:12;103419.84;;;9.16;38.81
71716;BME280;59568;52.128;5.434;2023-04-03T10:54:46;103411.19;;;9.15;39.25
71716;BME280;59568;52.128;5.434;2023-04-03T10:57:14;103409.06;;;9.31;40.57
71716;BME280;59568;52.128;5.434;2023-04-03T10:59:48;103406.41;;;9.37;39.95
71716;BME280;59568;52.128;5.434;2023-04-03T11:02:23;103408.41;;;9.42;39.07
71716;BME280;59568;52.128;5.434;2023-04-03T11:05:04;103408.16;;;9.44;38.91
71716;BME280;59568;52.128;5.434;2023-04-03T11:07:41;103406.50;;;9.49;39.48
71716;BME280;59568;52.128;5.434;2023-04-03T11:12:46;103390.75;;;9.81;40.34
71716;BME280;59568;52.128;5.434;2023-04-03T11:15:17;103406.88;;;9.96;39.05
71716;BME280;59568;52.128;5.434;2023-04-03T11:18:34;103406.41;;;9.81;39.48
71716;BME280;59568;52.128;5.434;2023-04-03T11:20:38;103393.53;;;9.86;39.45
71716;BME280;59568;52.128;5.434;2023-04-03T11:23:29;103396.50;;;10.08;39.09
71716;BME280;59568;52.128;5.434;2023-04-03T11:26:14;103400.03;;;10.14;38.63
71716;BME280;59568;52.128;5.434;2023-04-03T11:28:42;103404.38;;;10.02;37.94
71716;BME280;59568;52.128;5.434;2023-04-03T11:31:33;103395.34;;;10.04;40.15
71716;BME280;59568;52.128;5.434;2023-04-03T11:34:04;103390.44;;;10.08;38.64
71716;BME280;59568;52.128;5.434;2023-04-03T11:36:41;103395.88;;;10.25;39.29
71716;BME280;59568;52.128;5.434;2023-04-03T11:39:29;103400.75;;;10.21;36.87
71716;BME280;59568;52.128;5.434;2023-04-03T11:44:39;103379.56;;;10.11;37.78
71716;BME280;59568;52.128;5.434;2023-04-03T11:47:10;103391.97;;;10.15;38.29
71716;BME280;59568;52.128;5.434;2023-04-03T12:21:20;103362.66;;;10.74;37.41
71716;BME280;59568;52.128;5.434;2023-04-03T12:29:27;103339.63;;;10.83;37.11
71716;BME280;59568;52.128;5.434;2023-04-03T12:35:27;103323.00;;;10.77;37.86
71716;BME280;59568;52.128;5.434;2023-04-03T12:43:32;103319.53;;;10.53;37.92
71716;BME280;59568;52.128;5.434;2023-04-03T12:48:30;103311.63;;;10.71;37.84
71716;BME280;59568;52.128;5.434;2023-04-03T12:50:59;103314.81;;;10.73;38.54
71716;BME280;59568;52.128;5.434;2023-04-03T12:53:34;103304.13;;;10.75;38.29
71716;BME280;59568;52.128;5.434;2023-04-03T12:56:23;103299.47;;;10.77;38.56
71716;BME280;59568;52.128;5.434;2023-04-03T12:58:51;103307.09;;;10.78;37.81
71716;BME280;59568;52.128;5.434;2023-04-03T13:01:24;103294.97;;;10.54;37.32
71716;BME280;59568;52.128;5.434;2023-04-03T13:03:54;103293.88;;;10.73;38.08
71716;BME280;59568;52.128;5.434;2023-04-03T13:06:30;103283.53;;;10.67;36.73
71716;BME280;59568;52.128;5.434;2023-04-03T13:09:00;103299.25;;;10.78;38.19
71716;BME280;59568;52.128;5.434;2023-04-03T13:11:40;103287.88;;;10.73;38.27
71716;BME280;59568;52.128;5.434;2023-04-03T13:14:16;103287.38;;;10.64;36.76
71716;BME280;59568;52.128;5.434;2023-04-03T13:19:24;103289.88;;;10.47;39.23
71716;BME280;59568;52.128;5.434;2023-04-03T13:22:05;103282.63;;;10.61;38.26
71716;BME280;59568;52.128;5.434;2023-04-03T13:24:34;103273.53;;;10.87;38.63
71716;BME280;59568;52.128;5.434;2023-04-03T13:27:06;103277.53;;;11.02;38.81
71716;BME280;59568;52.128;5.434;2023-04-03T13:29:36;103273.44;;;11.17;37.41
71716;BME280;59568;52.128;5.434;2023-04-03T13:32:04;103271.25;;;11.03;37.99
71716;BME280;59568;52.128;5.434;2023-04-03T13:34:38;103269.31;;;10.98;37.51
71716;BME280;59568;52.128;5.434;2023-04-03T13:40:12;103267.53;;;10.87;38.29
71716;BME280;59568;52.128;5.434;2023-04-03T13:42:40;103276.16;;;10.87;37.91
71716;BME280;59568;52.128;5.434;2023-04-03T13:47:43;103271.63;;;10.83;38.21
71716;BME280;59568;52.128;5.434;2023-04-03T13:50:22;103274.47;;;10.93;37.53
71716;BME280;59568;52.128;5.434;2023-04-03T13:53:02;103277.16;;;10.86;38.23
71716;BME280;59568;52.128;5.434;2023-04-03T13:55:36;103273.22;;;11.07;38.37
71716;BME280;59568;52.128;5.434;2023-04-03T13:58:27;103272.72;;;11.10;36.92
71716;BME280;59568;52.128;5.434;2023-04-03T14:01:20;103275.81;;;10.84;37.72
71716;BME280;59568;52.128;5.434;2023-04-03T14:04:17;103270.25;;;10.92;37.67
71716;BME280;59568;52.128;5.434;2023-04-03T14:06:54;103270.47;;;10.90;37.90
71716;BME280;59568;52.128;5.434;2023-04-03T14:09:25;103270.56;;;10.72;37.75
71716;BME280;59568;52.128;5.434;2023-04-03T14:11:57;103264.78;;;10.70;37.63
71716;BME280;59568;52.128;5.434;2023-04-03T14:14:38;103260.66;;;10.62;38.38
71716;BME280;59568;52.128;5.434;2023-04-03T14:17:15;103255.22;;;10.75;36.87
71716;BME280;59568;52.128;5.434;2023-04-03T14:19:53;103241.34;;;10.63;38.06
71716;BME280;59568;52.128;5.434;2023-04-03T14:22:29;103242.16;;;10.64;38.46
71716;BME280;59568;52.128;5.434;2023-04-03T14:24:57;103229.78;;;10.71;38.76
71716;BME280;59568;52.128;5.434;2023-04-03T14:27:34;103236.25;;;10.56;37.73
71716;BME280;59568;52.128;5.434;2023-04-03T14:30:01;103234.03;;;10.42;38.55
71716;BME280;59568;52.128;5.434;2023-04-03T14:32:30;103231.91;;;10.38;38.27
71716;BME280;59568;52.128;5.434;2023-04-03T14:34:57;103228.94;;;10.35;38.84
71716;BME280;59568;52.128;5.434;2023-04-03T14:37:26;103219.47;;;10.34;38.36
71716;BME280;59568;52.128;5.434;2023-04-03T14:39:55;103216.38;;;10.25;39.05
71716;BME280;59568;52.128;5.434;2023-04-03T14:42:26;103217.59;;;10.11;38.80
71716;BME280;59568;52.128;5.434;2023-04-03T14:44:54;103227.94;;;10.17;39.92
71716;BME280;59568;52.128;5.434;2023-04-03T14:47:24;103225.28;;;10.36;39.71
71716;BME280;59568;52.128;5.434;2023-04-03T14:49:59;103226.63;;;10.27;39.48
71716;BME280;59568;52.128;5.434;2023-04-03T14:52:31;103222.28;;;10.20;40.42
71716;BME280;59568;52.128;5.434;2023-04-03T14:54:58;103220.00;;;10.12;39.93
71716;BME280;59568;52.128;5.434;2023-04-03T14:57:27;103214.75;;;10.12;41.08
71716;BME280;59568;52.128;5.434;2023-04-03T14:59:55;103207.56;;;10.08;40.82
71716;BME280;59568;52.128;5.434;2023-04-03T15:02:24;103211.84;;;9.90;40.74